This is the latest recevied weather packets stored in our database for station/object N5JXS. If no packets are shown the sender has not sent any weather packets the latest 10 day(s).
| Time | Temp. | Humidity | Pressure | Rain* | Wind** | Luminosity | Snow |
|---|---|---|---|---|---|---|---|
| 1777234258 | 13.33° C | 44% | 1006 hPa | 0 mm | - | 116 W/m² | - |
| 1777233955 | 13.89° C | 43% | 1005.9 hPa | 0 mm | - | 108 W/m² | - |
| 1777233651 | 13.89° C | 42% | 1005.8 hPa | 0 mm | - | 307 W/m² | - |
| 1777233351 | 14.44° C | 42% | 1006 hPa | 0 mm | - | 181 W/m² | - |
| 1777233046 | 13.89° C | 44% | 1005.9 hPa | 0 mm | - | 569 W/m² | - |
| 1777232744 | 13.89° C | 43% | 1006 hPa | 0 mm | - | 171 W/m² | - |
| 1777232442 | 13.89° C | 42% | 1006.2 hPa | 0 mm | - | 672 W/m² | - |
| 1777232138 | 13.89° C | 42% | 1006.3 hPa | 0 mm | - | 344 W/m² | - |
| 1777231836 | 14.44° C | 41% | 1006.2 hPa | 0 mm | - | 448 W/m² | - |
| 1777231532 | 14.44° C | 41% | 1005.9 hPa | 0 mm | - | 508 W/m² | - |
| 1777231228 | 14.44° C | 40% | 1006 hPa | 0 mm | - | 428 W/m² | - |
| 1777230925 | 15° C | 41% | 1006.2 hPa | 0 mm | - | 472 W/m² | - |
| 1777230620 | 15° C | 43% | 1006.4 hPa | 0 mm | - | 525 W/m² | - |
| 1777230315 | 13.89° C | 46% | 1006.5 hPa | 0 mm | - | 653 W/m² | - |
| 1777230013 | 13.33° C | 47% | 1006.4 hPa | 0 mm | - | 741 W/m² | - |
| 1777229710 | 12.78° C | 49% | 1006.8 hPa | 0 mm | - | 754 W/m² | - |
| 1777229407 | 12.78° C | 50% | 1006.8 hPa | 0 mm | - | 721 W/m² | - |
| 1777229103 | 12.22° C | 51% | 1006.9 hPa | 0 mm | - | 693 W/m² | - |
| 1777228801 | 11.67° C | 52% | 1007.5 hPa | 0 mm | - | 717 W/m² | - |
| 1777228496 | 12.22° C | 50% | 1007.5 hPa | 0 mm | - | 585 W/m² | - |
| 1777228192 | 11.67° C | 52% | 1007.5 hPa | 0 mm | - | 615 W/m² | - |
| 1777227891 | 11.67° C | 52% | 1007.3 hPa | 0 mm | - | 661 W/m² | - |
| 1777227587 | 11.11° C | 53% | 1007.8 hPa | 0 mm | - | 699 W/m² | - |
| 1777227283 | 11.11° C | 53% | 1007.9 hPa | 0 mm | - | 714 W/m² | - |
| 1777226980 | 11.11° C | 54% | 1007.9 hPa | 0 mm | - | 698 W/m² | - |
* Rain latest hour (hover to see other rain measurements)
** Current wind speed in m/s (hover to see current wind gust speed)